Time;durP1;ratioP1;P1;durP2;ratioP2;P2;SDS_P1;SDS_P2;PMS_P1;PMS_P2;Temp;Humidity;BMP_temperature;BMP_pressure;BME280_temperature;BME280_humidity;BME280_pressure;Samples;Min_cycle;Max_cycle;Signal;HPM_P1;HPM_P2
2021/05/19 00:01:55;;;;;;;2.65;2.03;;;15.20;60.80;;;;;;5022700;28;20036;-84
2021/05/19 00:04:21;;;;;;;2.38;1.80;;;15.10;60.70;;;;;;5039290;28;20029;-86
2021/05/19 00:06:47;;;;;;;2.67;1.83;;;15.10;60.80;;;;;;5056423;28;20039;-85
2021/05/19 00:09:14;;;;;;;2.47;1.73;;;15.10;60.90;;;;;;5021112;28;20024;-85
2021/05/19 00:11:44;;;;;;;2.60;1.80;;;15.00;60.90;;;;;;5039357;28;20094;-84
2021/05/19 00:14:11;;;;;;;2.15;1.73;;;15.00;60.90;;;;;;5033115;28;20029;-85
2021/05/19 00:16:37;;;;;;;2.92;2.00;;;15.00;60.90;;;;;;5036425;28;20079;-83
2021/05/19 00:19:04;;;;;;;2.67;1.77;;;14.90;60.90;;;;;;5050831;28;20041;-84
2021/05/19 00:21:30;;;;;;;2.45;1.90;;;14.90;61.00;;;;;;5039264;28;20123;-85
2021/05/19 00:23:56;;;;;;;2.83;1.88;;;14.80;61.00;;;;;;5074082;28;20111;-84
2021/05/19 00:26:22;;;;;;;3.55;2.05;;;14.80;61.10;;;;;;5019859;28;20029;-83
2021/05/19 00:28:51;;;;;;;3.08;2.08;;;14.80;61.20;;;;;;5035152;28;20080;-85
2021/05/19 00:31:19;;;;;;;2.30;1.90;;;14.70;61.10;;;;;;5039563;28;20520;-85
2021/05/19 00:33:45;;;;;;;2.38;1.77;;;14.70;61.20;;;;;;5047011;28;20043;-85
2021/05/19 00:36:11;;;;;;;2.88;1.90;;;14.60;61.90;;;;;;5035728;28;20397;-85
2021/05/19 00:38:37;;;;;;;2.20;1.90;;;14.60;61.20;;;;;;5046050;28;20040;-85
2021/05/19 00:41:03;;;;;;;2.47;2.00;;;14.60;61.30;;;;;;5055531;28;20036;-84
2021/05/19 00:43:29;;;;;;;2.00;1.75;;;14.50;61.30;;;;;;5022272;28;20028;-84
2021/05/19 00:45:54;;;;;;;2.40;1.90;;;14.50;61.40;;;;;;5053152;28;20021;-84
2021/05/19 00:48:20;;;;;;;3.92;2.00;;;14.40;61.40;;;;;;5036813;28;20133;-84
2021/05/19 00:50:46;;;;;;;2.60;2.00;;;14.40;61.50;;;;;;5054740;28;20020;-85
2021/05/19 00:53:12;;;;;;;2.78;2.13;;;14.40;61.60;;;;;;5038664;28;20667;-84
2021/05/19 00:55:38;;;;;;;2.63;1.83;;;14.40;61.60;;;;;;5024312;28;20025;-84
2021/05/19 00:58:04;;;;;;;1.75;1.60;;;14.30;61.60;;;;;;5009801;28;20444;-84
2021/05/19 01:00:37;;;;;;;2.72;2.00;;;14.30;61.60;;;;;;5043019;28;20041;-85
2021/05/19 01:03:07;;;;;;;1.85;1.70;;;14.30;61.60;;;;;;5014202;28;20033;-85
2021/05/19 01:11:07;;;;;;;2.72;2.05;;;14.20;61.70;;;;;;5045364;28;20024;-84
2021/05/19 01:13:34;;;;;;;2.50;1.75;;;14.10;61.80;;;;;;5030647;28;20116;-84
2021/05/19 01:16:00;;;;;;;1.65;1.48;;;14.10;61.80;;;;;;5036794;28;20020;-84
2021/05/19 01:18:27;;;;;;;2.40;1.80;;;14.10;61.80;;;;;;5041624;28;20056;-84
2021/05/19 01:20:55;;;;;;;3.45;2.22;;;14.00;61.90;;;;;;5038739;28;20037;-85
2021/05/19 01:23:21;;;;;;;3.15;2.20;;;14.00;61.90;;;;;;5057259;28;20036;-84
2021/05/19 01:25:47;;;;;;;2.65;1.95;;;14.00;62.00;;;;;;5075723;28;20028;-84
2021/05/19 01:28:13;;;;;;;2.63;2.00;;;14.00;62.00;;;;;;5041717;28;20035;-84
2021/05/19 01:30:40;;;;;;;2.78;2.00;;;14.00;62.10;;;;;;5034483;28;20128;-85
2021/05/19 01:33:06;;;;;;;2.97;2.03;;;13.90;62.10;;;;;;5032422;28;20033;-84
2021/05/19 01:35:33;;;;;;;2.42;1.90;;;13.90;62.10;;;;;;5051722;28;20025;-85
2021/05/19 01:38:00;;;;;;;2.60;2.08;;;13.90;62.20;;;;;;5011851;28;20052;-85
2021/05/19 01:40:27;;;;;;;3.35;2.30;;;13.90;62.20;;;;;;5020168;28;20112;-85
2021/05/19 01:42:54;;;;;;;3.13;2.20;;;13.80;62.20;;;;;;5037854;28;20037;-84
2021/05/19 01:45:41;;;;;;;2.50;2.00;;;13.90;62.30;;;;;;5032733;28;20037;-84
2021/05/19 01:48:14;;;;;;;2.75;2.22;;;13.90;62.30;;;;;;5051290;28;20116;-84
2021/05/19 01:50:41;;;;;;;2.30;1.90;;;13.80;62.40;;;;;;5046371;28;20029;-84
2021/05/19 01:53:08;;;;;;;3.00;1.90;;;13.80;62.40;;;;;;5055080;28;20033;-84
2021/05/19 01:55:34;;;;;;;3.03;2.38;;;13.80;62.40;;;;;;5038670;28;20183;-85
2021/05/19 01:58:00;;;;;;;3.67;2.42;;;13.80;62.50;;;;;;5054611;28;20029;-84
2021/05/19 02:00:28;;;;;;;2.83;2.33;;;13.80;62.50;;;;;;5038363;28;20033;-84
2021/05/19 02:03:00;;;;;;;2.67;2.20;;;13.70;62.50;;;;;;5037547;28;20036;-84
2021/05/19 02:05:28;;;;;;;2.85;2.20;;;13.70;62.50;;;;;;5037922;28;20029;-84
2021/05/19 02:07:55;;;;;;;3.10;2.38;;;13.70;62.50;;;;;;5021145;28;20032;-85
2021/05/19 02:10:25;;;;;;;2.40;2.03;;;13.70;62.60;;;;;;5038451;28;20025;-83
2021/05/19 02:12:52;;;;;;;3.40;2.28;;;13.70;62.60;;;;;;5036959;28;20087;-84
2021/05/19 02:15:20;;;;;;;2.83;2.08;;;13.70;62.60;;;;;;5005303;28;20029;-84
2021/05/19 02:17:48;;;;;;;2.97;2.40;;;13.60;62.50;;;;;;5035830;28;20035;-85
2021/05/19 02:20:17;;;;;;;3.00;2.40;;;13.60;62.50;;;;;;5036721;28;20056;-84
2021/05/19 02:22:44;;;;;;;2.83;2.33;;;13.60;62.60;;;;;;5053995;28;20025;-83
2021/05/19 02:25:11;;;;;;;3.50;2.50;;;13.60;62.60;;;;;;5031748;28;20029;-84
2021/05/19 02:27:38;;;;;;;3.42;2.40;;;13.60;62.70;;;;;;5036430;28;20025;-84
2021/05/19 02:30:07;;;;;;;3.40;2.40;;;13.50;62.70;;;;;;5032500;28;20040;-85
2021/05/19 02:32:33;;;;;;;3.25;2.47;;;13.50;62.70;;;;;;5057150;28;20047;-85
2021/05/19 02:35:00;;;;;;;4.30;2.58;;;13.50;62.70;;;;;;5057472;28;20476;-84
2021/05/19 02:37:26;;;;;;;3.72;2.55;;;13.50;62.80;;;;;;5056674;28;20065;-85
2021/05/19 02:39:52;;;;;;;3.30;2.45;;;13.40;62.70;;;;;;5007292;28;20507;-85
2021/05/19 02:42:18;;;;;;;3.42;2.60;;;13.40;62.70;;;;;;5030915;28;20478;-85
2021/05/19 02:44:44;;;;;;;3.75;3.00;;;13.40;62.80;;;;;;5029296;28;20037;-85
2021/05/19 02:47:10;;;;;;;4.32;3.10;;;13.40;62.80;;;;;;5024699;28;20039;-85
2021/05/19 02:49:35;;;;;;;4.30;3.30;;;13.40;62.80;;;;;;5022942;28;20485;-85
2021/05/19 02:52:02;;;;;;;3.38;2.70;;;13.30;62.80;;;;;;5048503;28;20508;-85
2021/05/19 02:54:27;;;;;;;4.25;2.97;;;13.30;62.80;;;;;;5050501;28;20381;-84
2021/05/19 02:56:53;;;;;;;4.32;3.22;;;13.30;62.80;;;;;;5016042;28;20037;-84
2021/05/19 02:59:19;;;;;;;4.25;3.22;;;13.30;62.80;;;;;;5032916;28;20115;-84
2021/05/19 03:01:45;;;;;;;4.80;3.53;;;13.30;62.90;;;;;;5039671;28;20124;-85
2021/05/19 03:04:11;;;;;;;4.10;2.90;;;13.30;62.90;;;;;;5037053;28;20397;-84
2021/05/19 03:06:37;;;;;;;4.55;3.35;;;13.20;62.90;;;;;;5036516;28;20024;-84
2021/05/19 03:09:05;;;;;;;4.20;3.03;;;13.20;62.90;;;;;;5056025;28;20038;-86
2021/05/19 03:11:31;;;;;;;4.40;3.13;;;13.20;62.90;;;;;;5056802;28;20020;-84
2021/05/19 03:13:56;;;;;;;4.20;3.40;;;13.20;63.00;;;;;;5017038;28;20029;-85
2021/05/19 03:16:22;;;;;;;3.75;2.85;;;13.10;63.00;;;;;;5013125;28;20389;-84
2021/05/19 03:18:48;;;;;;;4.10;3.17;;;13.10;63.00;;;;;;5022820;28;20423;-84
2021/05/19 03:21:14;;;;;;;4.13;3.20;;;13.10;63.00;;;;;;5073859;28;20029;-84
2021/05/19 03:23:40;;;;;;;4.15;3.15;;;13.10;63.00;;;;;;5023173;28;20041;-84
2021/05/19 03:26:07;;;;;;;4.20;3.28;;;13.10;63.00;;;;;;5056590;28;20021;-84
2021/05/19 03:28:33;;;;;;;4.20;3.35;;;13.10;63.10;;;;;;5020551;28;20040;-84
2021/05/19 03:30:59;;;;;;;4.30;3.20;;;13.00;63.00;;;;;;5035599;28;20048;-85
2021/05/19 03:33:25;;;;;;;4.72;3.38;;;13.00;63.10;;;;;;5053015;28;20021;-85
2021/05/19 03:35:51;;;;;;;4.28;3.20;;;13.00;63.10;;;;;;5048694;28;20045;-85
2021/05/19 03:38:17;;;;;;;4.32;3.20;;;13.00;63.10;;;;;;5026823;28;20087;-85
2021/05/19 03:40:44;;;;;;;3.83;3.03;;;13.00;63.10;;;;;;5022676;28;20025;-85
2021/05/19 03:43:10;;;;;;;4.32;3.08;;;13.00;63.20;;;;;;5051961;28;20048;-85
2021/05/19 03:45:36;;;;;;;4.38;3.47;;;13.00;63.20;;;;;;5036190;28;20162;-85
2021/05/19 03:48:03;;;;;;;3.88;3.28;;;12.90;63.20;;;;;;5043729;28;20033;-84
2021/05/19 03:50:30;;;;;;;4.53;3.53;;;12.90;63.20;;;;;;5044971;28;20099;-84
2021/05/19 03:53:00;;;;;;;4.15;3.28;;;12.90;63.30;;;;;;5002584;28;20029;-84
2021/05/19 03:55:26;;;;;;;3.90;3.20;;;12.90;63.30;;;;;;5052489;28;20028;-85
2021/05/19 03:57:52;;;;;;;4.13;3.40;;;12.90;64.00;;;;;;5052302;28;20025;-84
2021/05/19 04:00:22;;;;;;;4.40;3.38;;;12.90;63.30;;;;;;5042811;28;20029;-84
2021/05/19 04:02:51;;;;;;;4.63;3.50;;;12.90;63.40;;;;;;5031764;28;20064;-85
2021/05/19 04:05:27;;;;;;;4.43;3.50;;;12.80;63.40;;;;;;5035820;28;20029;-84
2021/05/19 04:07:54;;;;;;;4.30;3.53;;;12.80;63.50;;;;;;5035464;28;20032;-85
2021/05/19 04:10:22;;;;;;;3.90;3.08;;;12.80;63.40;;;;;;5035401;28;20032;-85
2021/05/19 04:12:50;;;;;;;4.78;3.65;;;12.80;63.40;;;;;;5052549;28;20036;-85
2021/05/19 04:15:17;;;;;;;4.47;3.60;;;12.80;63.50;;;;;;5019610;28;20025;-84
2021/05/19 04:17:43;;;;;;;4.10;3.13;;;12.80;63.60;;;;;;5052207;28;20485;-85
2021/05/19 04:20:10;;;;;;;4.85;3.67;;;12.80;63.50;;;;;;5035532;28;20223;-85
2021/05/19 04:22:35;;;;;;;4.18;3.50;;;12.80;63.60;;;;;;5051284;28;20025;-84
2021/05/19 04:25:02;;;;;;;4.75;3.47;;;12.80;63.60;;;;;;5035402;28;20474;-84
2021/05/19 04:27:27;;;;;;;4.30;3.58;;;12.80;63.60;;;;;;5002880;28;20465;-84
2021/05/19 04:29:53;;;;;;;4.13;3.25;;;12.80;63.70;;;;;;5018547;28;20099;-84
2021/05/19 04:32:19;;;;;;;4.47;3.65;;;12.80;64.30;;;;;;5038006;28;20041;-84
2021/05/19 04:34:45;;;;;;;4.72;3.58;;;12.80;63.70;;;;;;5033627;28;20481;-85
2021/05/19 04:37:11;;;;;;;3.90;3.20;;;12.80;63.70;;;;;;5035380;28;20040;-84
2021/05/19 04:39:37;;;;;;;3.78;3.22;;;12.80;63.70;;;;;;5022807;28;20062;-85
2021/05/19 04:42:03;;;;;;;4.40;3.15;;;12.80;63.80;;;;;;5039232;28;20068;-86
2021/05/19 04:44:29;;;;;;;3.75;3.08;;;12.80;63.80;;;;;;5055574;28;20024;-85
2021/05/19 04:46:54;;;;;;;4.68;3.38;;;12.80;63.80;;;;;;5021471;28;20124;-86
2021/05/19 04:49:20;;;;;;;4.40;3.42;;;12.70;63.80;;;;;;5016483;28;20025;-88
2021/05/19 04:51:46;;;;;;;4.20;3.28;;;12.80;63.90;;;;;;5038900;28;20606;-87
2021/05/19 04:54:12;;;;;;;4.30;3.30;;;12.80;63.90;;;;;;5056169;28;20377;-86
2021/05/19 04:56:39;;;;;;;4.40;3.30;;;12.70;63.90;;;;;;5038868;28;20032;-86
2021/05/19 04:59:05;;;;;;;4.43;3.42;;;12.80;64.00;;;;;;5055835;28;20040;-86
2021/05/19 05:01:31;;;;;;;4.55;3.38;;;12.80;64.10;;;;;;5039234;28;20512;-86
2021/05/19 05:03:57;;;;;;;4.63;3.42;;;12.80;64.10;;;;;;5019222;28;20041;-85
2021/05/19 05:06:22;;;;;;;4.40;3.50;;;12.80;64.10;;;;;;5022556;28;20060;-86
2021/05/19 05:08:48;;;;;;;4.28;3.33;;;12.80;64.10;;;;;;5073481;28;20032;-87
2021/05/19 05:11:15;;;;;;;4.32;3.45;;;12.70;64.10;;;;;;5020650;28;20020;-87
2021/05/19 05:13:41;;;;;;;4.03;3.22;;;12.70;64.10;;;;;;5064198;28;20473;-85
2021/05/19 05:16:07;;;;;;;4.05;3.13;;;12.80;64.10;;;;;;5038085;28;20063;-81
2021/05/19 05:18:41;;;;;;;3.70;3.03;;;12.80;64.20;;;;;;5056678;28;20064;-82
2021/05/19 05:21:08;;;;;;;4.80;3.15;;;12.80;65.00;;;;;;5054069;28;20032;-84
2021/05/19 05:23:34;;;;;;;3.53;2.85;;;12.80;64.20;;;;;;5050295;28;20500;-83
2021/05/19 05:26:01;;;;;;;4.45;3.08;;;12.70;64.20;;;;;;5055503;28;20024;-86
2021/05/19 05:28:27;;;;;;;4.05;3.30;;;12.80;64.30;;;;;;5038416;28;20051;-85
2021/05/19 05:30:54;;;;;;;4.93;3.20;;;12.80;64.30;;;;;;5038447;28;20530;-85
2021/05/19 05:33:20;;;;;;;4.25;3.30;;;12.80;64.30;;;;;;5022667;28;20029;-88
2021/05/19 05:35:50;;;;;;;4.35;3.53;;;12.80;64.30;;;;;;5038591;28;20035;-85
2021/05/19 05:38:17;;;;;;;4.57;3.10;;;12.80;64.40;;;;;;5053754;28;20469;-86
2021/05/19 05:40:42;;;;;;;4.40;3.50;;;12.80;64.30;;;;;;5063644;28;20028;-86
2021/05/19 05:43:08;;;;;;;3.65;3.13;;;12.80;64.30;;;;;;5058008;28;20027;-85
2021/05/19 05:45:34;;;;;;;4.00;3.22;;;12.80;64.30;;;;;;5051990;28;20039;-85
2021/05/19 05:48:00;;;;;;;4.10;3.33;;;12.80;64.40;;;;;;5028009;28;20031;-86
2021/05/19 05:50:26;;;;;;;4.43;3.38;;;12.90;64.40;;;;;;5042121;28;20195;-85
2021/05/19 05:52:52;;;;;;;3.65;3.00;;;12.90;64.40;;;;;;5025119;28;20555;-85
2021/05/19 05:55:21;;;;;;;3.70;3.17;;;12.90;64.40;;;;;;5058581;28;20159;-85
2021/05/19 05:57:51;;;;;;;4.55;3.40;;;12.90;64.40;;;;;;5042267;28;20021;-86
2021/05/19 06:00:17;;;;;;;4.57;3.15;;;12.90;64.40;;;;;;5047992;28;20107;-86
2021/05/19 06:02:43;;;;;;;4.18;3.30;;;12.90;64.40;;;;;;5042132;28;20123;-85
2021/05/19 06:05:11;;;;;;;3.83;3.00;;;13.00;64.40;;;;;;5037707;28;20448;-86
2021/05/19 06:07:37;;;;;;;4.40;3.20;;;13.00;64.50;;;;;;5057863;28;20020;-86
2021/05/19 06:10:04;;;;;;;3.97;3.25;;;13.00;64.50;;;;;;5068474;28;20100;-90
2021/05/19 06:12:30;;;;;;;3.28;2.88;;;13.00;64.60;;;;;;5058326;28;20028;-87
2021/05/19 06:14:56;;;;;;;4.50;3.40;;;13.00;64.50;;;;;;5041288;28;20024;-86
2021/05/19 06:17:22;;;;;;;4.03;3.20;;;13.00;64.50;;;;;;5021397;28;20118;-82
2021/05/19 06:19:47;;;;;;;4.18;3.28;;;13.00;64.50;;;;;;5056300;28;20098;-85
2021/05/19 06:22:13;;;;;;;3.80;3.05;;;13.10;64.60;;;;;;5042221;28;20119;-84
2021/05/19 06:24:39;;;;;;;4.78;3.38;;;13.10;64.50;;;;;;5040794;28;20067;-84
2021/05/19 06:27:05;;;;;;;4.63;3.30;;;13.10;64.50;;;;;;5044555;28;20090;-86
2021/05/19 06:29:31;;;;;;;4.38;3.22;;;13.10;64.50;;;;;;5024252;28;20120;-85
2021/05/19 06:31:57;;;;;;;4.57;3.45;;;13.10;64.50;;;;;;5056472;28;20136;-84
2021/05/19 06:34:23;;;;;;;4.43;3.40;;;13.20;64.60;;;;;;5069320;28;20041;-83
2021/05/19 06:36:51;;;;;;;4.50;3.28;;;13.20;64.60;;;;;;5033056;28;20075;-84
2021/05/19 06:39:22;;;;;;;3.83;3.05;;;13.20;64.60;;;;;;5040747;28;20032;-85
2021/05/19 06:41:49;;;;;;;4.05;3.20;;;13.20;64.60;;;;;;5057376;28;20089;-84
2021/05/19 06:44:16;;;;;;;4.35;3.20;;;13.20;64.60;;;;;;5039877;28;20031;-83
2021/05/19 06:46:43;;;;;;;4.32;3.25;;;13.30;64.60;;;;;;5051568;28;20020;-84
2021/05/19 06:49:09;;;;;;;4.25;3.47;;;13.30;64.60;;;;;;5040794;28;20029;-84
2021/05/19 06:51:35;;;;;;;4.57;3.40;;;13.30;64.60;;;;;;5066153;28;20078;-84
2021/05/19 06:54:02;;;;;;;4.28;3.17;;;13.40;64.70;;;;;;5031074;28;20115;-84
2021/05/19 06:56:27;;;;;;;5.07;3.53;;;13.40;64.70;;;;;;5037253;28;20362;-83
2021/05/19 06:58:54;;;;;;;4.60;3.45;;;13.40;64.60;;;;;;5048190;28;20029;-83
2021/05/19 07:01:21;;;;;;;4.57;2.95;;;13.40;64.60;;;;;;5056696;28;20090;-84
2021/05/19 07:03:50;;;;;;;3.95;3.00;;;13.50;64.70;;;;;;5057380;28;20039;-83
2021/05/19 07:06:20;;;;;;;4.45;3.17;;;13.50;64.60;;;;;;5038778;28;20083;-84
2021/05/19 07:08:46;;;;;;;5.35;3.45;;;13.50;64.60;;;;;;5050683;28;20029;-85
2021/05/19 07:11:13;;;;;;;3.75;2.70;;;13.50;64.50;;;;;;5055230;28;20031;-84
2021/05/19 07:13:39;;;;;;;4.35;3.20;;;13.60;64.60;;;;;;5065275;28;20030;-85
2021/05/19 07:16:05;;;;;;;4.68;3.45;;;13.60;64.60;;;;;;5043514;28;20020;-82
2021/05/19 07:18:31;;;;;;;5.00;3.78;;;13.70;64.60;;;;;;5027223;28;20064;-84
2021/05/19 07:20:57;;;;;;;4.97;3.50;;;13.70;64.60;;;;;;5003268;28;20049;-83
2021/05/19 07:23:23;;;;;;;5.38;3.65;;;13.70;64.60;;;;;;5048435;28;20040;-84
2021/05/19 07:25:49;;;;;;;4.90;3.67;;;13.80;64.60;;;;;;5042045;28;20021;-83
2021/05/19 07:28:15;;;;;;;4.95;3.95;;;13.80;64.50;;;;;;5044479;28;20108;-83
2021/05/19 07:30:43;;;;;;;4.78;3.47;;;13.80;64.50;;;;;;5027358;28;20048;-82
2021/05/19 07:33:11;;;;;;;5.22;3.80;;;13.90;64.60;;;;;;5055970;28;20084;-84
2021/05/19 07:35:38;;;;;;;5.03;3.45;;;13.90;64.50;;;;;;5022962;28;20035;-83
2021/05/19 07:38:08;;;;;;;4.90;3.50;;;14.00;64.50;;;;;;5039594;28;20055;-84
2021/05/19 07:40:34;;;;;;;4.95;3.65;;;14.00;64.50;;;;;;5056084;28;20036;-84
2021/05/19 07:43:00;;;;;;;4.55;3.42;;;14.00;64.40;;;;;;5039750;28;20641;-85
2021/05/19 07:45:26;;;;;;;5.10;3.65;;;14.10;64.40;;;;;;5056001;28;20520;-83
2021/05/19 07:47:52;;;;;;;4.85;3.83;;;14.10;64.40;;;;;;5032473;28;20538;-83
2021/05/19 07:50:18;;;;;;;5.32;3.85;;;14.10;64.30;;;;;;5023741;28;20040;-83
2021/05/19 07:52:44;;;;;;;5.57;4.20;;;14.20;64.40;;;;;;5019318;28;20029;-83
2021/05/19 07:55:21;;;;;;;5.68;4.20;;;14.20;65.00;;;;;;5005540;28;20090;-82
2021/05/19 08:02:59;;;;;;;3.83;3.30;;;14.30;64.20;;;;;;5056963;28;19923;-84
2021/05/19 08:05:25;;;;;;;5.80;4.30;;;14.30;64.10;;;;;;5018853;28;20037;-83
2021/05/19 08:07:51;;;;;;;6.22;4.15;;;14.40;64.20;;;;;;5022237;28;20145;-83
2021/05/19 08:10:17;;;;;;;4.75;3.78;;;14.40;64.30;;;;;;5039005;28;20078;-83
2021/05/19 08:12:42;;;;;;;5.80;4.28;;;14.40;64.30;;;;;;5036749;28;20113;-83
2021/05/19 08:15:09;;;;;;;5.68;4.32;;;14.50;64.30;;;;;;5015666;28;20045;-83
2021/05/19 08:17:35;;;;;;;6.07;4.05;;;14.50;64.30;;;;;;5034535;28;20058;-83
2021/05/19 08:20:01;;;;;;;5.55;4.13;;;14.50;64.30;;;;;;5037653;28;20017;-82
2021/05/19 08:22:27;;;;;;;5.45;3.90;;;14.50;64.30;;;;;;5073105;28;20100;-84
2021/05/19 08:24:53;;;;;;;6.93;4.93;;;14.60;64.20;;;;;;5020887;28;20052;-85
2021/05/19 08:27:19;;;;;;;5.85;4.57;;;14.60;64.20;;;;;;5035253;28;20029;-84
2021/05/19 08:29:46;;;;;;;5.85;4.40;;;14.60;64.10;;;;;;5051189;28;20377;-82
2021/05/19 08:32:12;;;;;;;6.32;4.65;;;14.70;64.20;;;;;;5045578;28;20055;-82
2021/05/19 08:34:38;;;;;;;6.82;4.50;;;14.70;64.10;;;;;;5055237;28;20034;-85
2021/05/19 08:37:04;;;;;;;5.88;4.30;;;14.70;64.10;;;;;;5051091;28;20037;-85
2021/05/19 08:39:30;;;;;;;6.43;4.70;;;14.80;64.10;;;;;;5034494;28;20049;-84
2021/05/19 08:41:56;;;;;;;5.97;4.60;;;14.80;64.00;;;;;;5054252;28;20032;-86
2021/05/19 08:44:24;;;;;;;5.80;4.40;;;14.90;64.10;;;;;;5068193;28;20021;-83
2021/05/19 08:46:56;;;;;;;5.68;4.55;;;14.80;64.00;;;;;;5054466;28;20024;-86
2021/05/19 08:49:24;;;;;;;5.80;4.47;;;14.90;64.00;;;;;;5054811;28;20113;-84
2021/05/19 08:51:51;;;;;;;6.47;5.00;;;14.90;64.00;;;;;;5055053;28;20032;-85
2021/05/19 08:54:19;;;;;;;5.53;4.32;;;14.90;63.90;;;;;;5041114;28;20450;-83
2021/05/19 08:56:47;;;;;;;5.65;4.50;;;15.00;64.00;;;;;;5038403;28;20024;-83
2021/05/19 08:59:13;;;;;;;6.28;4.28;;;15.00;63.90;;;;;;5037671;28;20115;-84
2021/05/19 09:01:42;;;;;;;5.43;4.30;;;15.10;63.90;;;;;;5048373;28;20112;-83
2021/05/19 09:04:19;;;;;;;5.47;4.43;;;15.10;63.90;;;;;;5031240;28;20056;-83
2021/05/19 09:06:56;;;;;;;6.40;5.13;;;15.10;63.90;;;;;;5024794;28;20027;-83
2021/05/19 09:09:29;;;;;;;6.43;4.68;;;15.20;63.90;;;;;;5040878;28;20033;-82
2021/05/19 09:12:00;;;;;;;5.78;4.57;;;15.20;63.90;;;;;;5038578;28;20025;-83
2021/05/19 09:14:30;;;;;;;5.65;4.70;;;15.30;63.80;;;;;;5045511;28;20079;-83
2021/05/19 09:17:23;;;;;;;5.40;4.43;;;15.30;63.80;;;;;;5027781;28;20020;-82
2021/05/19 09:19:51;;;;;;;5.88;4.63;;;15.40;63.90;;;;;;5044591;28;20029;-83
2021/05/19 09:22:24;;;;;;;5.80;4.13;;;15.40;63.70;;;;;;5058175;28;20023;-87
2021/05/19 09:24:51;;;;;;;6.28;4.57;;;15.50;63.80;;;;;;5041552;28;20071;-83
2021/05/19 09:27:17;;;;;;;6.88;4.75;;;15.50;63.70;;;;;;5058233;28;20021;-83
2021/05/19 09:29:46;;;;;;;6.53;4.72;;;15.60;63.80;;;;;;5041636;28;20082;-83
2021/05/19 09:32:13;;;;;;;6.75;4.50;;;15.60;63.80;;;;;;5057847;28;20040;-84
2021/05/19 09:35:00;;;;;;;6.10;4.50;;;15.70;63.80;;;;;;5050217;28;20040;-83
2021/05/19 09:37:28;;;;;;;5.18;4.07;;;15.80;64.00;;;;;;5022362;28;20033;-83
2021/05/19 09:40:01;;;;;;;6.13;4.78;;;15.90;63.80;;;;;;5041515;28;20512;-83
2021/05/19 09:42:36;;;;;;;5.15;4.07;;;15.90;63.70;;;;;;5074905;28;20042;-84
2021/05/19 09:45:14;;;;;;;;;;;15.90;63.60;;;;;;5076288;28;20032;-83
2021/05/19 09:47:42;;;;;;;4.95;3.75;;;16.00;63.50;;;;;;5057432;28;19908;-84
2021/05/19 09:50:11;;;;;;;5.93;4.20;;;16.10;63.30;;;;;;5074954;28;20020;-84
2021/05/19 09:52:37;;;;;;;5.10;4.10;;;16.10;63.40;;;;;;5041827;28;20028;-84
2021/05/19 09:55:12;;;;;;;5.28;4.07;;;16.20;63.30;;;;;;5029943;28;20032;-84
2021/05/19 09:57:43;;;;;;;5.63;4.60;;;16.20;63.40;;;;;;5010727;28;20473;-84
2021/05/19 10:00:11;;;;;;;5.00;4.10;;;16.30;63.30;;;;;;5057944;28;20032;-84
2021/05/19 10:02:37;;;;;;;4.82;3.65;;;16.30;63.30;;;;;;5057408;28;20089;-84
2021/05/19 10:05:15;;;;;;;6.07;4.75;;;16.40;63.30;;;;;;5058223;28;20032;-85
2021/05/19 10:07:42;;;;;;;5.57;4.15;;;16.40;63.30;;;;;;5040732;28;20016;-85
2021/05/19 10:10:08;;;;;;;5.70;4.47;;;16.50;63.30;;;;;;5041901;28;20477;-83
2021/05/19 10:12:38;;;;;;;5.93;4.80;;;16.60;63.40;;;;;;5058130;28;20040;-90
2021/05/19 10:15:08;;;;;;;5.47;4.57;;;16.60;63.40;;;;;;5057780;28;20025;-84
2021/05/19 10:17:45;;;;;;;5.65;4.93;;;16.70;63.50;;;;;;5041254;28;20029;-83
2021/05/19 10:20:15;;;;;;;5.32;4.10;;;16.80;63.50;;;;;;5039218;28;20025;-85
2021/05/19 10:22:45;;;;;;;6.00;4.60;;;16.90;63.40;;;;;;5043290;28;20048;-84
2021/05/19 10:25:37;;;;;;;5.95;4.78;;;16.90;63.40;;;;;;5041283;28;20021;-88
2021/05/19 10:28:08;;;;;;;5.32;4.00;;;17.00;63.50;;;;;;5071256;28;20039;-85
2021/05/19 10:30:40;;;;;;;5.78;4.18;;;17.10;63.20;;;;;;5042793;28;20034;-82
2021/05/19 10:33:27;;;;;;;5.07;4.15;;;17.20;63.80;;;;;;5066213;28;20078;-84
2021/05/19 10:35:55;;;;;;;4.88;4.03;;;17.30;63.00;;;;;;5030377;28;20043;-84
2021/05/19 10:38:27;;;;;;;5.45;4.13;;;17.40;62.90;;;;;;5046204;28;20105;-83
2021/05/19 10:40:55;;;;;;;5.40;4.15;;;17.50;62.80;;;;;;5040589;28;20036;-86
2021/05/19 10:43:21;;;;;;;5.15;4.40;;;17.60;62.80;;;;;;5075103;28;20040;-84
2021/05/19 10:45:53;;;;;;;5.13;4.15;;;17.70;62.80;;;;;;5039492;28;20509;-82
2021/05/19 10:48:31;;;;;;;5.10;4.30;;;17.70;63.40;;;;;;5050005;28;20024;-82
2021/05/19 10:51:01;;;;;;;4.32;3.70;;;17.80;62.70;;;;;;5074446;28;20048;-82
2021/05/19 10:59:14;;;;;;;4.60;4.00;;;18.10;62.40;;;;;;5054232;28;20469;-86
2021/05/19 11:01:41;;;;;;;4.70;3.85;;;18.10;62.00;;;;;;5035475;28;20021;-87
2021/05/19 11:04:17;;;;;;;4.60;3.67;;;18.20;62.00;;;;;;5034642;28;20508;-88
2021/05/19 11:07:02;;;;;;;4.75;4.05;;;18.20;61.90;;;;;;5046139;28;20040;-87
2021/05/19 11:09:40;;;;;;;5.32;3.85;;;18.30;61.90;;;;;;5054008;28;20041;-86
2021/05/19 11:12:23;;;;;;;3.67;2.75;;;18.30;61.70;;;;;;5057137;28;20123;-85
2021/05/19 11:14:52;;;;;;;4.13;2.97;;;18.40;61.70;;;;;;5043945;28;20029;-85
2021/05/19 11:20:13;;;;;;;2.53;2.08;;;18.30;61.70;;;;;;5047903;28;20493;-85
2021/05/19 11:22:39;;;;;;;3.17;2.40;;;18.40;61.70;;;;;;5051208;28;20154;-85
2021/05/19 11:25:06;;;;;;;3.08;2.47;;;18.40;61.70;;;;;;5036551;28;20056;-85
2021/05/19 11:27:34;;;;;;;2.72;2.03;;;18.30;61.80;;;;;;5036378;28;20025;-85
2021/05/19 11:30:02;;;;;;;2.83;1.98;;;18.30;61.90;;;;;;5056105;28;20024;-85
2021/05/19 11:32:30;;;;;;;3.78;2.13;;;18.30;61.90;;;;;;5039915;28;20052;-86
2021/05/19 11:35:16;;;;;;;2.65;1.92;;;18.20;61.90;;;;;;5019686;28;20093;-86
2021/05/19 11:38:00;;;;;;;2.60;1.58;;;18.20;62.10;;;;;;5056032;28;20021;-87
2021/05/19 11:41:01;;;;;;;2.43;1.83;;;18.10;62.00;;;;;;5073945;28;20024;-85
2021/05/19 11:43:36;;;;;;;2.38;1.38;;;18.10;62.20;;;;;;5004663;28;20136;-85
2021/05/19 11:46:02;;;;;;;3.70;1.40;;;18.10;62.10;;;;;;5039047;28;20033;-85
2021/05/19 11:48:29;;;;;;;1.35;1.20;;;18.10;62.20;;;;;;5064257;28;20029;-85
2021/05/19 11:50:56;;;;;;;1.17;1.08;;;17.90;62.10;;;;;;5052738;28;20036;-86
2021/05/19 11:53:22;;;;;;;1.30;1.20;;;17.90;62.00;;;;;;5056823;28;20040;-85
2021/05/19 11:55:51;;;;;;;1.50;1.17;;;17.90;62.00;;;;;;5053096;28;20130;-87
2021/05/19 11:58:25;;;;;;;2.10;1.40;;;17.80;62.00;;;;;;5036601;28;20017;-88
2021/05/19 12:01:05;;;;;;;1.67;1.30;;;17.80;62.00;;;;;;5066570;28;20029;-87
2021/05/19 12:03:32;;;;;;;1.30;1.20;;;17.80;62.10;;;;;;5039704;28;20456;-86
2021/05/19 12:06:00;;;;;;;1.58;1.20;;;17.70;62.10;;;;;;5045523;28;20036;-87
2021/05/19 12:08:35;;;;;;;1.70;1.20;;;17.60;62.10;;;;;;5045874;28;20067;-87
2021/05/19 12:11:13;;;;;;;1.30;1.10;;;17.60;62.20;;;;;;5042468;28;20028;-87
2021/05/19 12:13:55;;;;;;;1.35;0.93;;;17.60;62.20;;;;;;5048831;28;20063;-87
2021/05/19 12:16:29;;;;;;;1.00;0.90;;;17.50;62.30;;;;;;5078397;28;20103;-87
2021/05/19 12:19:14;;;;;;;1.33;1.20;;;17.50;62.30;;;;;;5047239;28;20074;-87
2021/05/19 12:21:45;;;;;;;0.93;0.93;;;17.40;62.30;;;;;;5033424;28;20052;-87
2021/05/19 12:24:13;;;;;;;1.17;1.00;;;17.40;62.20;;;;;;5035955;28;20040;-86
2021/05/19 12:26:40;;;;;;;1.83;1.02;;;17.30;62.20;;;;;;5031382;28;20021;-89
2021/05/19 12:29:42;;;;;;;1.65;0.98;;;17.30;62.20;;;;;;5055814;28;20544;-87
2021/05/19 12:32:25;;;;;;;0.98;0.80;;;17.30;62.30;;;;;;5054096;28;20052;-87
2021/05/19 12:35:06;;;;;;;1.05;0.80;;;17.20;62.20;;;;;;5055776;28;20033;-89
2021/05/19 12:37:40;;;;;;;0.88;0.88;;;17.20;62.40;;;;;;5035512;28;20029;-87
2021/05/19 12:40:07;;;;;;;1.60;0.90;;;17.20;62.40;;;;;;5055905;28;20028;-87
2021/05/19 12:43:01;;;;;;;0.88;0.88;;;17.10;62.40;;;;;;5038482;28;20039;-87
2021/05/19 12:45:29;;;;;;;0.80;0.80;;;17.10;62.60;;;;;;5049293;28;20041;-87
2021/05/19 12:48:09;;;;;;;1.45;0.82;;;17.10;62.50;;;;;;5055513;28;20021;-87
2021/05/19 12:50:49;;;;;;;0.73;0.73;;;17.00;62.60;;;;;;5058206;28;20028;-87
2021/05/19 12:53:52;;;;;;;0.73;0.73;;;17.00;62.60;;;;;;5074443;28;20108;-86
2021/05/19 12:56:28;;;;;;;0.88;0.70;;;17.00;62.80;;;;;;5004847;28;20037;-87
2021/05/19 12:59:09;;;;;;;0.70;0.70;;;16.90;62.70;;;;;;5042889;28;20036;-87
2021/05/19 13:02:06;;;;;;;0.85;0.85;;;16.90;62.70;;;;;;5045642;28;20029;-86
2021/05/19 13:04:31;;;;;;;0.80;0.80;;;16.90;63.00;;;;;;5058225;28;20045;-86
2021/05/19 13:06:57;;;;;;;0.85;0.73;;;16.90;62.90;;;;;;5039255;28;20436;-86
2021/05/19 13:09:28;;;;;;;0.95;0.88;;;16.90;62.90;;;;;;5059223;28;20040;-87
2021/05/19 13:12:06;;;;;;;0.90;0.75;;;16.80;63.00;;;;;;5026218;28;20052;-89
2021/05/19 13:14:40;;;;;;;1.52;0.77;;;16.80;63.00;;;;;;5033628;28;20021;-87
2021/05/19 13:17:35;;;;;;;1.00;0.90;;;16.80;63.10;;;;;;5058988;28;20082;-87